Lancashire, United Kingdom
Current Conditions -  °F | °C
As of 9:20 AM on Thursday 27 Nov 2014 (Local Time) from EGGP Reporting Station
Drizzle Drizzle  
Wind Chill:   Ceiling: 700
Heat Index:   Visibility: 1.2mi
Dew Point:   Wind: 5mph
Humidity: 100%   Direction: 110°ESE
Pressure: 29.59"   Gusts: NA
Location:  53.5°N, 2.8°W
Report Text: EGGP 270920Z 11004KT 2000 R09/1200 -DZ BR SCT002 BKN007 07/07 Q1002
Loading
Personal Weather Stations






























Interactive Weather Map New forecast layout! Learn more

10-Day Weather Forecast

Advertisements
Track Severe Weather on mobile